createdAt,value
2019-05-29T00:00:41.686Z,86.20
2019-05-29T00:03:12.345Z,85.90
2019-05-29T00:05:41.934Z,86.20
2019-05-29T00:08:12.324Z,86.40
2019-05-29T00:10:42.896Z,86.70
2019-05-29T00:13:12.394Z,86.70
2019-05-29T00:15:41.928Z,86.50
2019-05-29T00:18:12.485Z,86.70
2019-05-29T00:20:41.527Z,87.00
2019-05-29T00:23:12.600Z,87.20
2019-05-29T00:25:42.166Z,87.60
2019-05-29T00:28:15.115Z,87.90
2019-05-29T00:30:44.906Z,87.90
2019-05-29T00:33:14.570Z,88.30
2019-05-29T00:35:44.401Z,88.40
2019-05-29T00:38:14.745Z,88.20
2019-05-29T00:40:44.388Z,88.40
2019-05-29T00:43:15.071Z,88.20
2019-05-29T00:45:44.989Z,88.40
2019-05-29T00:48:15.907Z,89.00
2019-05-29T00:50:45.502Z,88.80
2019-05-29T00:53:14.964Z,89.00
2019-05-29T00:55:44.376Z,88.90
2019-05-29T00:58:14.878Z,89.00
2019-05-29T01:00:44.555Z,89.10
2019-05-29T01:03:14.101Z,89.30
2019-05-29T01:05:45.092Z,89.70
2019-05-29T01:08:14.679Z,89.80
2019-05-29T01:10:44.284Z,90.00
2019-05-29T01:13:15.064Z,90.00
2019-05-29T01:15:44.741Z,90.50
2019-05-29T01:18:17.800Z,90.30
2019-05-29T01:20:47.351Z,90.40
2019-05-29T01:23:16.920Z,90.50
2019-05-29T01:25:46.360Z,90.20
2019-05-29T01:28:16.912Z,89.90
2019-05-29T01:30:46.490Z,90.00
2019-05-29T01:33:18.597Z,90.00
2019-05-29T01:35:47.340Z,90.00
2019-05-29T01:38:17.183Z,90.00
2019-05-29T01:40:46.688Z,90.30
2019-05-29T01:43:17.422Z,88.60
2019-05-29T01:45:47.033Z,88.40
2019-05-29T01:48:17.406Z,89.70
2019-05-29T01:50:47.007Z,89.40
2019-05-29T01:53:17.652Z,90.00
2019-05-29T01:55:46.514Z,89.70
2019-05-29T01:58:15.917Z,90.30
2019-05-29T02:00:45.419Z,90.00
2019-05-29T02:03:15.763Z,90.30
2019-05-29T02:05:45.307Z,90.40
2019-05-29T02:08:16.007Z,90.60
2019-05-29T02:10:45.607Z,90.50
2019-05-29T02:13:15.237Z,90.70
2019-05-29T02:15:44.719Z,90.80
2019-05-29T02:18:14.216Z,91.00
2019-05-29T02:20:43.718Z,90.80
2019-05-29T02:23:13.275Z,91.00
2019-05-29T02:25:42.833Z,90.80
2019-05-29T02:28:12.360Z,90.70
2019-05-29T02:30:41.833Z,90.40
2019-05-29T02:33:11.357Z,90.40
2019-05-29T02:35:40.893Z,90.50
2019-05-29T02:38:10.349Z,90.60
2019-05-29T02:40:42.695Z,90.60
2019-05-29T02:43:12.122Z,90.50
2019-05-29T02:45:53.657Z,90.40
2019-05-29T02:48:12.996Z,90.50
2019-05-29T02:50:42.767Z,90.70
2019-05-29T02:53:12.221Z,90.90
2019-05-29T02:55:41.693Z,91.00
2019-05-29T02:58:11.163Z,91.30
2019-05-29T03:00:54.419Z,90.90
2019-05-29T03:03:26.507Z,90.70
2019-05-29T03:05:56.868Z,90.60
2019-05-29T03:08:27.062Z,90.60
2019-05-29T03:10:57.499Z,90.50
2019-05-29T03:13:27.624Z,90.80
2019-05-29T03:16:10.491Z,90.80
2019-05-29T03:18:30.219Z,90.70
2019-05-29T03:21:00.507Z,90.80
2019-05-29T03:23:33.354Z,90.70
2019-05-29T03:26:02.135Z,91.00
2019-05-29T03:28:32.380Z,90.70
2019-05-29T03:31:02.788Z,90.70
2019-05-29T03:33:43.818Z,90.90
2019-05-29T03:36:03.529Z,90.90
2019-05-29T03:38:34.670Z,91.20
2019-05-29T03:41:05.427Z,91.30
2019-05-29T03:43:35.881Z,91.20
2019-05-29T03:46:05.069Z,91.20
2019-05-29T03:48:34.642Z,91.30
2019-05-29T03:51:04.195Z,91.60
2019-05-29T03:53:35.798Z,91.50
2019-05-29T03:56:05.018Z,91.00
2019-05-29T03:58:35.087Z,91.00
2019-05-29T04:01:05.437Z,91.10
2019-05-29T04:03:35.694Z,91.20
2019-05-29T04:06:06.422Z,91.30
2019-05-29T04:08:38.222Z,91.40
2019-05-29T04:11:07.379Z,91.50
2019-05-29T04:13:38.786Z,91.40
2019-05-29T04:16:10.022Z,91.50
2019-05-29T04:18:40.628Z,91.70
2019-05-29T04:21:12.023Z,91.50
2019-05-29T04:23:43.202Z,91.40
2019-05-29T04:26:16.052Z,91.60
2019-05-29T04:28:46.097Z,91.70
2019-05-29T04:31:15.841Z,91.70
2019-05-29T04:33:45.470Z,91.90
2019-05-29T04:36:16.569Z,91.70
2019-05-29T04:38:46.062Z,91.70
2019-05-29T04:41:15.522Z,91.90
2019-05-29T04:43:45.012Z,91.60
2019-05-29T04:46:14.461Z,91.40
2019-05-29T04:48:43.942Z,91.50
2019-05-29T04:51:13.548Z,91.30
2019-05-29T04:53:43.098Z,91.50
2019-05-29T04:56:12.562Z,91.50
2019-05-29T04:58:43.169Z,91.60
2019-05-29T05:01:12.623Z,91.70
2019-05-29T05:03:42.089Z,92.00
2019-05-29T05:06:11.571Z,91.90
2019-05-29T05:08:41.068Z,92.00
2019-05-29T05:11:11.225Z,92.00
2019-05-29T05:13:40.817Z,92.40
2019-05-29T05:16:10.365Z,92.40
2019-05-29T05:18:40.373Z,92.40
2019-05-29T05:21:10.561Z,92.40
2019-05-29T05:23:40.511Z,92.20
2019-05-29T05:26:12.833Z,92.30
2019-05-29T05:28:45.240Z,91.80
2019-05-29T05:31:13.688Z,91.90
2019-05-29T05:33:43.182Z,92.40
2019-05-29T05:36:12.643Z,92.00
2019-05-29T05:38:42.137Z,91.90
2019-05-29T05:41:11.631Z,91.80
2019-05-29T05:43:41.563Z,91.50
2019-05-29T05:46:12.266Z,91.50
2019-05-29T05:48:41.854Z,90.90
2019-05-29T05:51:11.472Z,91.00
2019-05-29T05:53:42.572Z,90.60
2019-05-29T05:56:12.148Z,90.50
2019-05-29T05:58:42.315Z,90.30
2019-05-29T06:01:12.251Z,89.60
2019-05-29T06:03:42.440Z,89.20
2019-05-29T06:06:12.291Z,88.90
2019-05-29T06:08:42.424Z,88.60
2019-05-29T06:11:12.247Z,88.50
2019-05-29T06:13:42.794Z,87.70
2019-05-29T06:16:12.643Z,88.00
2019-05-29T06:18:42.998Z,88.40
2019-05-29T06:21:12.729Z,87.20
2019-05-29T06:23:43.558Z,85.10
2019-05-29T06:26:14.648Z,84.60
2019-05-29T06:28:44.234Z,82.50
2019-05-29T06:31:13.785Z,83.20
2019-05-29T06:33:43.918Z,83.20
2019-05-29T06:36:14.764Z,82.40
2019-05-29T06:38:44.603Z,80.30
2019-05-29T06:41:14.853Z,79.40
2019-05-29T06:43:44.701Z,80.10
2019-05-29T06:46:14.339Z,80.90
2019-05-29T06:48:57.649Z,79.60
2019-05-29T06:51:14.887Z,78.20
2019-05-29T06:53:44.664Z,77.40
2019-05-29T06:56:14.503Z,77.80
2019-05-29T06:58:44.485Z,75.00
2019-05-29T07:01:14.986Z,77.50
2019-05-29T07:03:44.497Z,75.70
2019-05-29T07:06:14.029Z,74.80
2019-05-29T07:08:47.850Z,72.60
2019-05-29T07:11:14.750Z,74.30
2019-05-29T07:13:47.559Z,73.90
2019-05-29T07:16:15.573Z,71.80
2019-05-29T07:19:22.672Z,71.50
2019-05-29T07:21:18.451Z,73.90
2019-05-29T07:23:48.782Z,70.00
2019-05-29T07:26:18.622Z,73.30
2019-05-29T07:29:07.637Z,72.20
2019-05-29T07:31:19.595Z,71.70
2019-05-29T07:33:50.066Z,70.90
2019-05-29T07:36:19.564Z,68.80
2019-05-29T07:38:57.664Z,66.70
2019-05-29T07:41:20.112Z,67.00
2019-05-29T07:43:49.650Z,66.10
2019-05-29T07:46:19.214Z,64.60
2019-05-29T07:48:50.364Z,65.30
2019-05-29T07:51:20.197Z,64.40
2019-05-29T07:53:49.707Z,68.00
2019-05-29T07:56:22.956Z,63.90
2019-05-29T07:59:01.824Z,64.20
2019-05-29T08:01:21.743Z,66.90
2019-05-29T08:03:51.339Z,62.80
2019-05-29T08:06:20.871Z,63.10
2019-05-29T08:08:50.393Z,61.70
2019-05-29T08:11:19.879Z,61.10
2019-05-29T08:13:50.047Z,59.60
2019-05-29T08:16:19.727Z,63.80
2019-05-29T08:18:53.039Z,65.60
2019-05-29T08:21:22.031Z,64.90
2019-05-29T08:23:51.532Z,61.90
2019-05-29T08:26:21.234Z,60.50
2019-05-29T08:28:51.320Z,58.50
2019-05-29T08:31:23.544Z,60.30
2019-05-29T08:33:53.004Z,57.20
2019-05-29T08:36:22.658Z,58.40
2019-05-29T08:38:53.640Z,56.70
2019-05-29T08:41:23.154Z,57.70
2019-05-29T08:43:54.333Z,59.10
2019-05-29T08:46:24.624Z,56.40
2019-05-29T08:48:54.148Z,56.00
2019-05-29T08:51:24.386Z,54.40
2019-05-29T08:53:54.807Z,56.10
2019-05-29T08:56:24.636Z,58.40
2019-05-29T08:58:54.543Z,56.00
2019-05-29T09:01:24.079Z,56.90
2019-05-29T09:03:56.328Z,57.00
2019-05-29T09:06:25.896Z,56.00
2019-05-29T09:08:55.361Z,54.00
2019-05-29T09:11:24.835Z,53.70
2019-05-29T09:13:54.438Z,54.30
2019-05-29T09:16:25.206Z,56.20
2019-05-29T09:18:53.844Z,53.30
2019-05-29T09:21:26.503Z,52.80
2019-05-29T09:23:58.339Z,52.10
2019-05-29T09:26:26.157Z,49.20
2019-05-29T09:28:55.923Z,51.20
2019-05-29T09:31:25.369Z,51.80
2019-05-29T09:33:54.880Z,50.20
2019-05-29T09:36:24.740Z,50.10
2019-05-29T09:38:54.492Z,52.30
2019-05-29T09:41:25.463Z,52.80
2019-05-29T09:43:59.571Z,47.20
2019-05-29T09:46:26.353Z,49.70
2019-05-29T09:49:00.738Z,49.90
2019-05-29T09:51:29.479Z,49.80
2019-05-29T09:54:01.034Z,49.50
2019-05-29T09:56:31.322Z,49.50
2019-05-29T09:59:01.826Z,46.90
2019-05-29T10:01:32.066Z,44.80
2019-05-29T10:04:05.334Z,48.10
2019-05-29T10:06:53.181Z,50.30
2019-05-29T10:09:23.160Z,49.10
2019-05-29T10:11:54.659Z,48.70
2019-05-29T10:14:24.874Z,44.90
2019-05-29T10:16:58.208Z,46.30
2019-05-29T10:19:27.542Z,45.20
2019-05-29T10:21:58.457Z,46.40
2019-05-29T10:24:32.043Z,46.80
2019-05-29T10:27:01.558Z,47.60
2019-05-29T10:29:30.658Z,45.40
2019-05-29T10:32:00.121Z,47.80
2019-05-29T10:34:29.598Z,47.00
2019-05-29T10:36:59.107Z,43.20
2019-05-29T10:39:28.603Z,46.80
2019-05-29T10:41:59.471Z,44.80
2019-05-29T10:44:28.941Z,45.30
2019-05-29T10:46:58.457Z,41.80
2019-05-29T10:49:28.054Z,43.20
2019-05-29T10:52:12.826Z,45.40
2019-05-29T10:54:28.667Z,44.30
2019-05-29T10:56:58.106Z,43.00
2019-05-29T10:59:27.585Z,46.10
2019-05-29T11:01:57.005Z,45.60
2019-05-29T11:04:26.541Z,45.20
2019-05-29T11:06:56.896Z,42.40
2019-05-29T11:09:25.993Z,43.40
2019-05-29T11:11:57.363Z,42.60
2019-05-29T11:14:27.082Z,43.70
2019-05-29T11:16:57.619Z,42.60
2019-05-29T11:19:28.965Z,42.40
2019-05-29T11:22:04.545Z,44.10
2019-05-29T11:24:30.996Z,40.30
2019-05-29T11:27:00.706Z,43.10
2019-05-29T11:29:30.159Z,42.50
2019-05-29T11:31:59.724Z,41.20
2019-05-29T11:34:29.178Z,41.60
2019-05-29T11:36:58.742Z,41.80
2019-05-29T11:39:31.494Z,39.40
2019-05-29T11:42:00.997Z,39.40
2019-05-29T11:44:30.506Z,36.80
2019-05-29T11:47:00.067Z,41.00
2019-05-29T11:49:29.582Z,42.00
2019-05-29T11:52:22.898Z,40.70
2019-05-29T11:54:30.226Z,37.80
2019-05-29T11:56:59.907Z,38.80
2019-05-29T11:59:29.417Z,36.70
2019-05-29T12:02:03.153Z,40.10
2019-05-29T12:04:32.730Z,36.20
2019-05-29T12:07:02.629Z,37.40
2019-05-29T12:09:33.720Z,37.50
2019-05-29T12:12:03.531Z,36.40
2019-05-29T12:14:33.053Z,39.70
2019-05-29T12:17:03.871Z,35.80
2019-05-29T12:19:33.602Z,38.70
2019-05-29T12:22:03.124Z,37.90
2019-05-29T12:24:32.550Z,37.00
2019-05-29T12:27:02.762Z,36.40
2019-05-29T12:29:32.305Z,35.90
2019-05-29T12:32:03.800Z,36.50
2019-05-29T12:34:33.004Z,34.70
2019-05-29T12:37:03.737Z,35.00
2019-05-29T12:39:33.361Z,34.80
2019-05-29T12:42:03.757Z,34.90
2019-05-29T12:44:33.356Z,34.90
2019-05-29T12:47:04.297Z,33.60
2019-05-29T12:49:35.249Z,36.40
2019-05-29T12:52:08.123Z,35.30
2019-05-29T12:54:37.199Z,33.70
2019-05-29T12:57:06.783Z,31.80
2019-05-29T12:59:37.869Z,32.40
2019-05-29T13:02:08.190Z,36.10
2019-05-29T13:05:06.399Z,34.70
2019-05-29T13:07:08.980Z,33.80
2019-05-29T13:09:38.450Z,35.20
2019-05-29T13:12:07.985Z,33.50
2019-05-29T13:14:37.504Z,34.30
2019-05-29T13:17:07.148Z,33.60
2019-05-29T13:19:36.625Z,32.80
2019-05-29T13:22:06.575Z,33.00
2019-05-29T13:24:38.760Z,33.10
2019-05-29T13:27:08.343Z,34.20
2019-05-29T13:29:37.789Z,36.00
2019-05-29T13:32:07.646Z,34.50
2019-05-29T13:34:37.207Z,31.90
2019-05-29T13:37:09.324Z,34.00
2019-05-29T13:39:37.955Z,34.10
2019-05-29T13:42:11.691Z,33.30
2019-05-29T13:44:38.565Z,34.60
2019-05-29T13:47:08.568Z,33.90
2019-05-29T13:49:39.200Z,34.00
2019-05-29T13:52:12.224Z,31.60
2019-05-29T13:54:40.155Z,32.60
2019-05-29T13:57:09.718Z,33.30
2019-05-29T13:59:39.259Z,32.80
2019-05-29T14:02:10.836Z,32.20
2019-05-29T14:04:40.267Z,32.80
2019-05-29T14:07:09.765Z,33.70
2019-05-29T14:09:39.512Z,34.00
2019-05-29T14:12:09.515Z,33.90
2019-05-29T14:14:39.083Z,33.30
2019-05-29T14:17:08.897Z,33.80
2019-05-29T14:19:38.636Z,33.70
2019-05-29T14:22:09.234Z,32.90
2019-05-29T14:24:38.834Z,32.60
2019-05-29T14:27:09.514Z,35.00
2019-05-29T14:29:39.679Z,33.60
2019-05-29T14:32:09.376Z,31.30
2019-05-29T14:34:40.039Z,31.80
2019-05-29T14:37:09.915Z,29.00
2019-05-29T14:39:40.552Z,32.20
2019-05-29T14:42:10.255Z,34.00
2019-05-29T14:44:39.712Z,33.80
2019-05-29T14:47:10.190Z,32.40
2019-05-29T14:49:39.013Z,31.50
2019-05-29T14:52:08.719Z,33.80
2019-05-29T14:54:41.928Z,32.50
2019-05-29T14:57:24.529Z,32.80
2019-05-29T14:59:40.559Z,36.50
2019-05-29T15:02:18.935Z,36.60
2019-05-29T15:04:41.352Z,35.00
2019-05-29T15:07:12.077Z,35.10
2019-05-29T15:09:41.859Z,34.10
2019-05-29T15:12:12.116Z,33.30
2019-05-29T15:14:41.910Z,35.60
2019-05-29T15:17:13.060Z,36.50
2019-05-29T15:19:42.816Z,38.70
2019-05-29T15:22:14.219Z,36.60
2019-05-29T15:24:59.577Z,35.70
2019-05-29T15:27:16.054Z,37.30
2019-05-29T15:29:45.686Z,36.80
2019-05-29T15:32:16.541Z,35.30
2019-05-29T15:34:47.302Z,37.40
2019-05-29T15:37:18.713Z,38.20
2019-05-29T15:39:47.930Z,39.00
2019-05-29T15:42:17.495Z,40.20
2019-05-29T15:44:47.030Z,39.60
2019-05-29T15:47:17.167Z,40.30
2019-05-29T15:49:46.808Z,39.70
2019-05-29T15:52:17.425Z,39.00
2019-05-29T15:54:47.075Z,38.70
2019-05-29T15:57:18.009Z,39.90
2019-05-29T15:59:47.418Z,40.10
2019-05-29T16:02:17.976Z,40.30
2019-05-29T16:04:46.933Z,40.40
2019-05-29T16:07:16.501Z,40.60
2019-05-29T16:09:45.971Z,40.10
2019-05-29T16:12:16.680Z,40.20
2019-05-29T16:14:48.995Z,40.90
2019-05-29T16:17:19.366Z,41.70
2019-05-29T16:19:49.870Z,42.00
2019-05-29T16:22:19.338Z,42.20
2019-05-29T16:24:48.845Z,42.80
2019-05-29T16:27:18.305Z,41.50
2019-05-29T16:29:47.813Z,41.60
2019-05-29T16:32:17.836Z,42.20
2019-05-29T16:34:47.405Z,41.60
2019-05-29T16:37:17.382Z,42.40
2019-05-29T16:39:47.031Z,44.10
2019-05-29T16:42:16.498Z,45.30
2019-05-29T16:44:46.061Z,44.90
2019-05-29T16:47:16.532Z,44.70
2019-05-29T16:49:46.112Z,44.80
2019-05-29T16:52:16.723Z,44.80
2019-05-29T16:54:46.363Z,45.90
2019-05-29T16:57:17.025Z,45.20
2019-05-29T16:59:46.648Z,43.50
2019-05-29T17:02:17.622Z,44.20
2019-05-29T17:04:47.263Z,45.00
2019-05-29T17:07:17.977Z,45.00
2019-05-29T17:09:47.628Z,44.20
2019-05-29T17:12:18.159Z,44.60
2019-05-29T17:14:49.016Z,46.30
2019-05-29T17:17:18.683Z,46.30
2019-05-29T17:19:48.535Z,46.20
2019-05-29T17:22:18.900Z,46.80
2019-05-29T17:24:48.510Z,46.50
2019-05-29T17:27:18.746Z,46.20
2019-05-29T17:29:48.555Z,46.60
2019-05-29T17:32:18.867Z,45.90
2019-05-29T17:34:49.634Z,45.30
2019-05-29T17:37:19.142Z,44.90
2019-05-29T17:39:48.655Z,45.00
2019-05-29T17:42:18.487Z,45.30
2019-05-29T17:44:48.210Z,46.60
2019-05-29T17:47:19.597Z,46.20
2019-05-29T17:49:49.283Z,47.70
2019-05-29T17:52:19.777Z,48.00
2019-05-29T17:54:49.392Z,47.60
2019-05-29T17:57:19.785Z,48.20
2019-05-29T17:59:49.404Z,49.00
2019-05-29T18:02:20.100Z,49.60
2019-05-29T18:04:49.753Z,49.80
2019-05-29T18:07:20.498Z,48.90
2019-05-29T18:09:50.233Z,50.40
2019-05-29T18:12:20.870Z,51.10
2019-05-29T18:14:49.734Z,50.60
2019-05-29T18:17:19.690Z,50.70
2019-05-29T18:19:49.181Z,51.10
2019-05-29T18:22:19.565Z,51.60
2019-05-29T18:24:49.185Z,51.60
2019-05-29T18:27:20.310Z,51.10
2019-05-29T18:29:49.763Z,51.80
2019-05-29T18:32:20.258Z,52.70
2019-05-29T18:34:51.780Z,52.10
2019-05-29T18:37:20.224Z,53.20
2019-05-29T18:39:52.362Z,53.20
2019-05-29T18:42:22.475Z,53.40
2019-05-29T18:44:51.980Z,53.50
2019-05-29T18:47:22.927Z,54.10
2019-05-29T18:49:52.489Z,53.90
2019-05-29T18:52:21.983Z,54.20
2019-05-29T18:54:51.681Z,55.10
2019-05-29T18:57:21.302Z,54.80
2019-05-29T18:59:50.783Z,54.70
2019-05-29T19:02:21.287Z,55.40
2019-05-29T19:04:50.921Z,56.10
2019-05-29T19:07:21.511Z,56.60
2019-05-29T19:09:53.828Z,56.70
2019-05-29T19:12:23.706Z,56.40
2019-05-29T19:14:53.287Z,56.20
2019-05-29T19:17:23.840Z,56.70
2019-05-29T19:19:52.691Z,55.10
2019-05-29T19:22:22.293Z,56.40
2019-05-29T19:24:52.046Z,56.60
2019-05-29T19:27:31.215Z,56.40
2019-05-29T19:29:52.757Z,56.90
2019-05-29T19:32:23.332Z,57.30
2019-05-29T19:34:53.026Z,57.20
2019-05-29T19:37:23.772Z,57.30
2019-05-29T19:39:53.514Z,57.80
2019-05-29T19:42:24.294Z,57.30
2019-05-29T19:44:53.992Z,58.50
2019-05-29T19:47:24.963Z,58.60
2019-05-29T19:49:54.479Z,59.20
2019-05-29T19:52:25.682Z,59.30
2019-05-29T19:54:55.207Z,59.10
2019-05-29T19:57:25.809Z,59.50
2019-05-29T19:59:54.792Z,59.70
2019-05-29T20:02:24.304Z,60.30
2019-05-29T20:04:53.943Z,60.70
2019-05-29T20:07:23.470Z,61.30
2019-05-29T20:09:54.960Z,61.50
2019-05-29T20:12:24.061Z,61.50
2019-05-29T20:14:54.126Z,62.30
2019-05-29T20:17:23.699Z,62.60
2019-05-29T20:19:53.277Z,63.90
2019-05-29T20:22:22.843Z,63.50
2019-05-29T20:24:52.403Z,64.10
2019-05-29T20:27:21.881Z,64.30
2019-05-29T20:29:53.150Z,64.60
2019-05-29T20:32:22.671Z,64.90
2019-05-29T20:34:52.256Z,65.70
2019-05-29T20:37:21.747Z,65.90
2019-05-29T20:39:51.243Z,66.10
2019-05-29T20:42:20.723Z,65.70
2019-05-29T20:44:50.185Z,66.50
2019-05-29T20:47:19.725Z,66.50
2019-05-29T20:49:49.564Z,66.20
2019-05-29T20:52:19.079Z,66.10
2019-05-29T20:54:48.621Z,67.10
2019-05-29T20:57:19.660Z,67.90
2019-05-29T20:59:49.116Z,67.70
2019-05-29T21:02:18.597Z,67.20
2019-05-29T21:04:48.085Z,67.00
2019-05-29T21:07:17.584Z,67.10
2019-05-29T21:09:48.664Z,66.80
2019-05-29T21:12:18.045Z,65.40
2019-05-29T21:14:47.566Z,66.20
2019-05-29T21:17:17.158Z,64.70
2019-05-29T21:19:46.590Z,64.20
2019-05-29T21:22:16.127Z,65.60
2019-05-29T21:24:55.992Z,65.30
2019-05-29T21:27:16.804Z,65.10
2019-05-29T21:29:46.312Z,65.10
2019-05-29T21:32:15.778Z,64.80
2019-05-29T21:34:46.226Z,66.00
2019-05-29T21:37:15.921Z,65.30
2019-05-29T21:39:46.749Z,65.30
2019-05-29T21:42:16.256Z,65.60
2019-05-29T21:44:47.293Z,65.50
2019-05-29T21:47:18.851Z,65.70
2019-05-29T21:49:48.560Z,65.00
2019-05-29T21:52:18.500Z,65.60
2019-05-29T21:54:48.254Z,65.80
2019-05-29T21:57:17.785Z,65.20
2019-05-29T21:59:48.122Z,66.90
2019-05-29T22:02:18.844Z,66.70
2019-05-29T22:04:50.397Z,66.70
2019-05-29T22:07:20.384Z,67.20
2019-05-29T22:09:50.276Z,68.50
2019-05-29T22:12:21.410Z,68.30
2019-05-29T22:14:53.190Z,69.20
2019-05-29T22:17:22.857Z,68.80
2019-05-29T22:19:52.846Z,68.70
2019-05-29T22:22:23.772Z,68.80
2019-05-29T22:24:55.121Z,69.10
2019-05-29T22:27:24.901Z,69.20
2019-05-29T22:29:55.299Z,69.70
2019-05-29T22:32:25.030Z,70.30
2019-05-29T22:34:55.413Z,70.80
2019-05-29T22:37:25.025Z,71.40
2019-05-29T22:39:55.489Z,72.00
2019-05-29T22:42:24.967Z,71.10
2019-05-29T22:44:55.579Z,71.00
2019-05-29T22:47:25.199Z,71.50
2019-05-29T22:49:57.942Z,71.30
2019-05-29T22:52:27.577Z,71.70
2019-05-29T22:54:58.018Z,72.50
2019-05-29T22:57:27.588Z,72.40
2019-05-29T22:59:57.958Z,71.90
2019-05-29T23:02:27.441Z,71.80
2019-05-29T23:04:58.348Z,71.70
2019-05-29T23:07:28.088Z,71.50
2019-05-29T23:09:58.322Z,71.40
2019-05-29T23:12:29.067Z,71.70
2019-05-29T23:14:58.561Z,71.20
2019-05-29T23:17:28.055Z,71.70
2019-05-29T23:19:58.568Z,71.50
2019-05-29T23:22:28.147Z,71.80
2019-05-29T23:24:58.749Z,71.40
2019-05-29T23:27:28.640Z,73.10
2019-05-29T23:30:00.940Z,73.30
2019-05-29T23:32:32.150Z,73.80
2019-05-29T23:35:01.712Z,74.50
2019-05-29T23:37:31.293Z,74.50
2019-05-29T23:40:01.314Z,74.30
2019-05-29T23:42:31.041Z,73.70
2019-05-29T23:45:01.538Z,73.60
2019-05-29T23:47:32.215Z,74.10
2019-05-29T23:50:02.841Z,74.40
2019-05-29T23:52:32.905Z,75.10
2019-05-29T23:55:02.487Z,76.30
2019-05-29T23:57:32.105Z,77.10
